createdAt,value
2023-05-21T00:01:13.757Z,74.44
2023-05-21T00:02:14.674Z,74.44
2023-05-21T00:03:15.639Z,74.55
2023-05-21T00:04:16.088Z,74.65
2023-05-21T00:05:16.667Z,73.70
2023-05-21T00:06:17.587Z,72.21
2023-05-21T00:09:07.103Z,70.76
2023-05-21T00:10:08.091Z,70.25
2023-05-21T00:11:08.971Z,70.25
2023-05-21T00:12:09.841Z,70.65
2023-05-21T00:13:10.711Z,71.60
2023-05-21T00:14:11.655Z,72.55
2023-05-21T00:17:01.105Z,73.70
2023-05-21T00:18:02.012Z,73.80
2023-05-21T00:19:02.956Z,74.14
2023-05-21T00:20:03.792Z,74.44
2023-05-21T00:21:04.753Z,74.65
2023-05-21T00:22:05.613Z,75.05
2023-05-21T00:23:06.829Z,74.75
2023-05-21T00:24:07.324Z,73.90
2023-05-21T00:25:08.160Z,72.72
2023-05-21T00:26:09.047Z,71.80
2023-05-21T00:27:09.968Z,72.21
2023-05-21T00:28:10.818Z,72.75
2023-05-21T00:31:00.513Z,74.41
2023-05-21T00:32:01.441Z,74.85
2023-05-21T00:33:02.462Z,75.26
2023-05-21T00:34:03.171Z,75.36
2023-05-21T00:35:04.065Z,75.49
2023-05-21T00:36:04.980Z,75.80
2023-05-21T00:37:05.891Z,76.01
2023-05-21T00:38:06.824Z,76.01
2023-05-21T00:39:07.234Z,76.01
2023-05-21T00:40:08.120Z,76.10
2023-05-21T00:41:09.011Z,76.31
2023-05-21T00:42:09.972Z,76.51
2023-05-21T00:43:10.840Z,76.82
2023-05-21T00:44:11.740Z,76.21
2023-05-21T00:45:12.598Z,75.87
2023-05-21T00:46:13.501Z,74.51
2023-05-21T00:47:14.397Z,74.21
2023-05-21T00:48:15.257Z,74.85
2023-05-21T00:49:16.166Z,75.36
2023-05-21T00:50:17.014Z,75.70
2023-05-21T00:51:39.160Z,76.01
2023-05-21T00:52:18.525Z,76.41
2023-05-21T00:53:19.384Z,76.61
2023-05-21T00:54:20.276Z,77.06
2023-05-21T00:55:21.150Z,77.16
2023-05-21T00:56:22.035Z,77.26
2023-05-21T00:57:22.911Z,77.16
2023-05-21T01:00:12.811Z,77.47
2023-05-21T01:01:13.956Z,76.51
2023-05-21T01:02:14.599Z,75.32
2023-05-21T01:03:15.633Z,73.87
2023-05-21T01:04:16.108Z,73.06
2023-05-21T01:05:16.636Z,73.36
2023-05-21T01:08:06.187Z,75.80
2023-05-21T01:09:07.071Z,76.41
2023-05-21T01:10:07.981Z,77.06
2023-05-21T01:11:08.865Z,77.47
2023-05-21T01:12:09.740Z,77.67
2023-05-21T01:13:10.620Z,77.91
2023-05-21T01:14:21.916Z,78.21
2023-05-21T01:15:12.244Z,78.31
2023-05-21T01:16:13.174Z,78.62
2023-05-21T01:17:14.058Z,78.96
2023-05-21T01:18:14.982Z,79.06
2023-05-21T01:19:16.055Z,78.52
2023-05-21T01:20:16.450Z,77.77
2023-05-21T01:21:17.481Z,76.48
2023-05-21T01:22:17.913Z,75.32
2023-05-21T01:23:18.773Z,74.07
2023-05-21T01:24:19.631Z,74.51
2023-05-21T01:25:20.510Z,75.70
2023-05-21T01:26:21.374Z,76.61
2023-05-21T01:27:22.250Z,77.36
2023-05-21T01:30:12.030Z,78.72
2023-05-21T01:31:12.911Z,79.02
2023-05-21T01:32:13.749Z,79.27
2023-05-21T01:33:14.798Z,79.37
2023-05-21T01:34:15.187Z,79.57
2023-05-21T01:35:16.868Z,79.77
2023-05-21T01:38:05.665Z,80.18
2023-05-21T01:39:06.606Z,79.23
2023-05-21T01:40:07.532Z,77.83
2023-05-21T01:41:08.484Z,76.17
2023-05-21T01:42:09.392Z,76.51
2023-05-21T01:43:10.266Z,77.56
2023-05-21T01:45:59.963Z,79.02
2023-05-21T01:47:00.413Z,79.47
2023-05-21T01:48:01.371Z,79.88
2023-05-21T01:49:02.296Z,80.18
2023-05-21T01:50:03.212Z,80.49
2023-05-21T01:51:04.085Z,80.18
2023-05-21T01:52:04.984Z,79.43
2023-05-21T01:53:05.852Z,77.83
2023-05-21T01:54:06.729Z,76.72
2023-05-21T01:55:07.635Z,77.26
2023-05-21T01:56:08.524Z,78.21
2023-05-21T01:57:09.413Z,78.82
2023-05-21T01:58:31.566Z,79.33
2023-05-21T01:59:10.882Z,79.77
2023-05-21T02:00:11.749Z,80.08
2023-05-21T02:01:12.623Z,80.08
2023-05-21T02:02:13.576Z,79.98
2023-05-21T02:03:14.532Z,80.08
2023-05-21T02:04:14.938Z,80.59
2023-05-21T02:05:15.798Z,80.93
2023-05-21T02:06:19.019Z,80.49
2023-05-21T02:07:17.405Z,79.53
2023-05-21T02:08:18.280Z,78.58
2023-05-21T02:09:19.162Z,77.63
2023-05-21T02:10:20.076Z,77.53
2023-05-21T02:11:20.956Z,77.97
2023-05-21T02:12:21.866Z,78.62
2023-05-21T02:15:11.409Z,80.29
2023-05-21T02:16:12.305Z,80.59
2023-05-21T02:17:13.178Z,80.83
2023-05-21T02:18:14.084Z,81.04
2023-05-21T02:19:15.035Z,81.24
2023-05-21T02:20:15.922Z,81.44
2023-05-21T02:23:05.719Z,81.95
2023-05-21T02:24:06.734Z,82.09
2023-05-21T02:25:07.152Z,82.19
2023-05-21T02:26:08.148Z,81.74
2023-05-21T02:27:08.975Z,79.94
2023-05-21T02:28:09.849Z,79.29
2023-05-21T02:29:10.778Z,78.04
2023-05-21T02:30:11.774Z,76.58
2023-05-21T02:31:12.678Z,75.93
2023-05-21T02:32:13.600Z,76.37
2023-05-21T02:33:14.514Z,77.67
2023-05-21T02:34:15.416Z,79.02
2023-05-21T02:35:16.312Z,80.08
2023-05-21T02:36:17.162Z,80.79
2023-05-21T02:37:18.033Z,81.34
2023-05-21T02:38:18.906Z,81.65
2023-05-21T02:39:20.641Z,82.19
2023-05-21T02:40:20.516Z,82.29
2023-05-21T02:41:21.420Z,82.40
2023-05-21T02:42:22.281Z,82.70
2023-05-21T02:43:23.173Z,82.90
2023-05-21T02:44:24.080Z,83.11
2023-05-21T02:45:24.973Z,83.31
2023-05-21T02:46:25.970Z,83.42
2023-05-21T02:47:26.467Z,83.42
2023-05-21T02:50:16.020Z,80.69
2023-05-21T02:51:16.899Z,79.84
2023-05-21T02:52:17.830Z,80.04
2023-05-21T02:53:18.712Z,79.84
2023-05-21T02:54:19.570Z,79.53
2023-05-21T02:55:20.507Z,79.53
2023-05-21T02:56:22.769Z,80.38
2023-05-21T02:57:22.178Z,81.13
2023-05-21T02:58:23.082Z,81.74
2023-05-21T02:59:23.947Z,82.15
2023-05-21T03:00:24.923Z,82.40
2023-05-21T03:01:25.823Z,82.60
2023-05-21T03:04:15.430Z,83.65
2023-05-21T03:05:16.325Z,83.76
2023-05-21T03:06:17.237Z,83.86
2023-05-21T03:07:18.121Z,83.96
2023-05-21T03:08:19.074Z,84.17
2023-05-21T03:09:19.935Z,84.27
2023-05-21T03:12:09.572Z,84.37
2023-05-21T03:13:10.154Z,83.31
2023-05-21T03:14:10.552Z,81.71
2023-05-21T03:15:11.420Z,80.65
2023-05-21T03:16:12.358Z,79.50
2023-05-21T03:17:13.261Z,78.58
2023-05-21T03:20:02.849Z,79.74
2023-05-21T03:21:03.314Z,80.90
2023-05-21T03:22:04.201Z,82.05
2023-05-21T03:23:05.100Z,82.80
2023-05-21T03:24:06.000Z,83.11
2023-05-21T03:25:06.896Z,83.51
2023-05-21T03:27:56.395Z,84.06
2023-05-21T03:28:57.385Z,84.17
2023-05-21T03:29:58.286Z,84.37
2023-05-21T03:30:59.193Z,84.58
2023-05-21T03:32:00.199Z,84.78
2023-05-21T03:33:00.645Z,84.67
2023-05-21T03:35:50.229Z,84.67
2023-05-21T03:36:51.181Z,84.88
2023-05-21T03:37:51.704Z,84.03
2023-05-21T03:38:52.615Z,82.66
2023-05-21T03:39:53.562Z,81.60
2023-05-21T03:40:54.451Z,81.30
2023-05-21T03:43:43.928Z,81.20
2023-05-21T03:44:44.830Z,81.54
2023-05-21T03:45:45.748Z,82.15
2023-05-21T03:46:46.636Z,82.80
2023-05-21T03:47:47.525Z,83.31
2023-05-21T03:48:48.428Z,83.51
2023-05-21T03:51:37.942Z,84.27
2023-05-21T03:52:38.826Z,84.27
2023-05-21T03:53:39.702Z,84.37
2023-05-21T03:54:40.620Z,84.58
2023-05-21T03:55:41.497Z,84.67
2023-05-21T03:56:42.371Z,84.67
2023-05-21T03:59:31.899Z,84.98
2023-05-21T04:00:32.857Z,85.08
2023-05-21T04:01:33.794Z,85.08
2023-05-21T04:02:34.782Z,84.58
2023-05-21T04:03:35.965Z,83.72
2023-05-21T04:04:35.755Z,83.17
2023-05-21T04:07:25.288Z,80.35
2023-05-21T04:08:25.948Z,81.10
2023-05-21T04:09:26.328Z,82.26
2023-05-21T04:10:27.223Z,83.01
2023-05-21T04:11:28.124Z,83.42
2023-05-21T04:12:29.079Z,83.92
2023-05-21T04:15:18.602Z,84.58
2023-05-21T04:16:19.665Z,84.88
2023-05-21T04:17:20.117Z,85.22
2023-05-21T04:18:20.985Z,85.43
2023-05-21T04:19:21.955Z,85.63
2023-05-21T04:20:22.916Z,85.53
2023-05-21T04:23:12.431Z,85.39
2023-05-21T04:24:13.334Z,83.92
2023-05-21T04:25:14.240Z,82.21
2023-05-21T04:26:15.162Z,82.15
2023-05-21T04:27:16.013Z,81.91
2023-05-21T04:28:16.918Z,82.32
2023-05-21T04:29:19.102Z,82.05
2023-05-21T04:30:18.494Z,82.46
2023-05-21T04:31:19.378Z,82.90
2023-05-21T04:32:20.415Z,83.42
2023-05-21T04:33:20.763Z,83.62
2023-05-21T04:34:21.620Z,84.03
2023-05-21T04:35:22.510Z,84.37
2023-05-21T04:38:12.079Z,84.78
2023-05-21T04:39:12.985Z,84.98
2023-05-21T04:40:13.901Z,85.08
2023-05-21T04:41:14.787Z,85.39
2023-05-21T04:42:15.650Z,85.53
2023-05-21T04:43:16.536Z,85.49
2023-05-21T04:46:06.130Z,85.08
2023-05-21T04:47:06.670Z,84.88
2023-05-21T04:48:07.193Z,84.88
2023-05-21T04:49:08.058Z,84.88
2023-05-21T04:50:08.937Z,85.19
2023-05-21T04:51:09.882Z,84.53
2023-05-21T04:53:59.294Z,80.62
2023-05-21T04:55:00.161Z,80.00
2023-05-21T04:56:01.043Z,78.85
2023-05-21T04:57:01.924Z,78.20
2023-05-21T04:58:02.841Z,78.44
2023-05-21T04:59:05.275Z,79.50
2023-05-21T05:01:53.379Z,81.81
2023-05-21T05:02:54.427Z,82.35
2023-05-21T05:03:55.020Z,82.56
2023-05-21T05:04:55.412Z,82.76
2023-05-21T05:05:56.264Z,82.87
2023-05-21T05:06:57.149Z,83.27
2023-05-21T05:09:46.726Z,83.37
2023-05-21T05:10:47.142Z,83.37
2023-05-21T05:11:48.041Z,83.48
2023-05-21T05:12:48.917Z,83.37
2023-05-21T05:13:49.798Z,83.37
2023-05-21T05:14:50.779Z,83.27
2023-05-21T05:17:40.342Z,83.48
2023-05-21T05:18:41.253Z,83.37
2023-05-21T05:19:42.128Z,83.37
2023-05-21T05:20:43.056Z,83.37
2023-05-21T05:21:43.920Z,83.27
2023-05-21T05:22:44.810Z,83.17
2023-05-21T05:25:34.298Z,80.85
2023-05-21T05:26:36.202Z,79.36
2023-05-21T05:27:38.402Z,77.80
2023-05-21T05:28:36.969Z,78.75
2023-05-21T05:29:37.850Z,79.16
2023-05-21T05:30:38.853Z,77.45
2023-05-21T05:33:27.862Z,79.39
2023-05-21T05:34:28.294Z,79.80
2023-05-21T05:35:29.236Z,80.45
2023-05-21T05:36:29.726Z,80.76
2023-05-21T05:37:30.648Z,81.06
2023-05-21T05:38:31.547Z,81.40
2023-05-21T05:41:21.091Z,82.01
2023-05-21T05:42:21.985Z,81.91
2023-05-21T05:43:22.844Z,82.12
2023-05-21T05:44:23.725Z,82.32
2023-05-21T05:45:24.760Z,82.32
2023-05-21T05:46:25.616Z,82.21
2023-05-21T05:49:15.211Z,78.91
2023-05-21T05:50:16.061Z,77.36
2023-05-21T05:51:16.964Z,77.80
2023-05-21T05:52:17.852Z,78.64
2023-05-21T05:53:18.772Z,79.50
2023-05-21T05:54:19.704Z,79.90
2023-05-21T05:57:09.326Z,80.85
2023-05-21T05:58:09.804Z,81.06
2023-05-21T05:59:10.757Z,81.16
2023-05-21T06:00:11.655Z,81.26
2023-05-21T06:01:12.530Z,81.16
2023-05-21T06:02:13.456Z,81.37
2023-05-21T06:05:02.963Z,81.57
2023-05-21T06:06:03.900Z,81.37
2023-05-21T06:07:04.823Z,81.67
2023-05-21T06:08:05.699Z,80.72
2023-05-21T06:09:06.636Z,79.46
2023-05-21T06:10:07.574Z,78.30
2023-05-21T06:12:57.094Z,79.16
2023-05-21T06:13:57.980Z,79.56
2023-05-21T06:14:58.864Z,80.11
2023-05-21T06:15:59.827Z,80.62
2023-05-21T06:17:00.696Z,80.62
2023-05-21T06:18:01.638Z,80.41
2023-05-21T06:20:51.267Z,80.31
2023-05-21T06:21:52.189Z,80.31
2023-05-21T06:22:53.109Z,80.31
2023-05-21T06:23:53.962Z,80.72
2023-05-21T06:24:54.902Z,80.17
2023-05-21T06:25:55.790Z,79.66
2023-05-21T06:28:45.632Z,78.71
2023-05-21T06:29:46.476Z,78.81
2023-05-21T06:30:47.390Z,79.16
2023-05-21T06:31:48.248Z,79.16
2023-05-21T06:32:49.348Z,79.36
2023-05-21T06:33:49.871Z,79.36
2023-05-21T06:36:39.022Z,79.36
2023-05-21T06:37:39.780Z,79.46
2023-05-21T06:38:40.717Z,79.16
2023-05-21T06:39:41.582Z,79.25
2023-05-21T06:40:42.570Z,79.36
2023-05-21T06:41:43.414Z,79.25
2023-05-21T06:42:44.334Z,79.36
2023-05-21T06:43:45.249Z,79.36
2023-05-21T06:44:46.159Z,79.36
2023-05-21T06:45:47.052Z,79.46
2023-05-21T06:46:47.946Z,79.42
2023-05-21T06:49:37.797Z,75.12
2023-05-21T06:50:38.709Z,74.91
2023-05-21T06:51:39.610Z,75.12
2023-05-21T06:52:40.490Z,75.76
2023-05-21T06:53:41.399Z,76.51
2023-05-21T06:54:42.324Z,76.71
2023-05-21T06:57:31.866Z,77.66
2023-05-21T06:58:32.721Z,78.17
2023-05-21T06:59:33.663Z,78.37
2023-05-21T07:00:34.553Z,78.37
2023-05-21T07:01:35.482Z,78.47
2023-05-21T07:02:36.567Z,78.47
2023-05-21T07:05:26.072Z,78.47
2023-05-21T07:06:26.527Z,78.57
2023-05-21T07:07:27.453Z,77.38
2023-05-21T07:08:28.293Z,74.77
2023-05-21T07:09:29.234Z,73.43
2023-05-21T07:10:30.086Z,72.38
2023-05-21T07:13:19.839Z,73.73
2023-05-21T07:14:20.804Z,74.27
2023-05-21T07:15:21.685Z,74.98
2023-05-21T07:16:22.539Z,75.32
2023-05-21T07:17:23.476Z,75.62
2023-05-21T07:18:24.353Z,75.96
2023-05-21T07:19:25.361Z,76.37
2023-05-21T07:20:25.858Z,76.57
2023-05-21T07:21:26.794Z,76.78
2023-05-21T07:22:28.542Z,76.87
2023-05-21T07:23:28.502Z,76.87
2023-05-21T07:24:29.369Z,76.78
2023-05-21T07:27:25.897Z,77.08
2023-05-21T07:28:20.605Z,77.08
2023-05-21T07:29:20.531Z,75.38
2023-05-21T07:30:21.433Z,73.80
2023-05-21T07:31:22.317Z,72.04
2023-05-21T07:32:23.218Z,71.94
2023-05-21T07:33:24.137Z,72.88
2023-05-21T07:34:24.998Z,73.39
2023-05-21T07:35:25.874Z,73.93
2023-05-21T07:36:26.759Z,74.68
2023-05-21T07:37:27.709Z,75.08
2023-05-21T07:38:28.674Z,75.38
2023-05-21T07:41:18.923Z,75.82
2023-05-21T07:42:19.444Z,76.13
2023-05-21T07:43:20.347Z,76.13
2023-05-21T07:44:21.273Z,75.89
2023-05-21T07:45:22.151Z,75.69
2023-05-21T07:46:23.190Z,75.69
2023-05-21T07:47:24.961Z,75.38
2023-05-21T07:48:24.316Z,74.00
2023-05-21T07:49:25.303Z,73.15
2023-05-21T07:50:26.138Z,71.47
2023-05-21T07:51:27.027Z,71.40
2023-05-21T07:52:27.971Z,71.70
2023-05-21T07:53:28.853Z,72.75
2023-05-21T07:54:29.770Z,73.15
2023-05-21T07:55:30.722Z,73.36
2023-05-21T07:56:31.612Z,73.25
2023-05-21T07:57:32.544Z,73.15
2023-05-21T07:58:33.435Z,73.15
2023-05-21T07:59:34.330Z,73.19
2023-05-21T08:00:35.244Z,73.19
2023-05-21T08:03:25.320Z,74.20
2023-05-21T08:04:25.852Z,74.04
2023-05-21T08:05:26.345Z,74.44
2023-05-21T08:06:27.297Z,74.84
2023-05-21T08:07:28.175Z,74.44
2023-05-21T08:08:29.025Z,74.20
2023-05-21T08:11:18.665Z,73.56
2023-05-21T08:12:19.050Z,73.56
2023-05-21T08:13:19.953Z,73.12
2023-05-21T08:14:20.846Z,71.84
2023-05-21T08:15:21.738Z,69.04
2023-05-21T08:16:22.668Z,67.47
2023-05-21T08:19:12.695Z,66.83
2023-05-21T08:20:13.123Z,66.96
2023-05-21T08:21:14.061Z,67.47
2023-05-21T08:22:14.956Z,68.01
2023-05-21T08:23:15.827Z,68.44
2023-05-21T08:24:16.699Z,69.68
2023-05-21T08:25:17.602Z,69.98
2023-05-21T08:26:18.481Z,70.09
2023-05-21T08:27:19.449Z,70.09
2023-05-21T08:28:20.302Z,71.00
2023-05-21T08:29:21.257Z,70.59
2023-05-21T08:32:10.787Z,70.26
2023-05-21T08:33:11.307Z,69.85
2023-05-21T08:34:11.780Z,69.55
2023-05-21T08:35:12.648Z,69.21
2023-05-21T08:36:13.493Z,69.31
2023-05-21T08:37:14.386Z,69.42
2023-05-21T08:38:54.951Z,69.65
2023-05-21T08:39:16.226Z,69.31
2023-05-21T08:40:17.124Z,69.31
2023-05-21T08:41:17.697Z,69.21
2023-05-21T08:42:35.174Z,67.87
2023-05-21T08:43:20.353Z,67.54
2023-05-21T08:44:20.226Z,66.47
2023-05-21T08:45:21.121Z,64.99
2023-05-21T08:46:22.017Z,63.12
2023-05-21T08:47:22.947Z,62.82
2023-05-21T08:48:23.801Z,62.62
2023-05-21T08:49:27.007Z,63.99
2023-05-21T08:50:25.572Z,65.30
2023-05-21T08:51:26.449Z,65.62
2023-05-21T08:54:16.069Z,66.70
2023-05-21T08:55:16.976Z,67.40
2023-05-21T08:56:17.821Z,67.71
2023-05-21T08:57:18.714Z,67.80
2023-05-21T08:58:19.623Z,67.30
2023-05-21T08:59:20.521Z,67.50
2023-05-21T09:00:42.631Z,67.71
2023-05-21T09:01:23.427Z,67.91
2023-05-21T09:02:22.741Z,67.50
2023-05-21T09:03:23.249Z,68.85
2023-05-21T09:04:23.730Z,69.15
2023-05-21T09:05:24.593Z,68.85
2023-05-21T09:06:25.467Z,66.97
2023-05-21T09:07:26.349Z,65.16
2023-05-21T09:08:27.248Z,63.90
2023-05-21T09:09:28.139Z,61.72
2023-05-21T09:10:29.009Z,62.03
2023-05-21T09:13:18.959Z,63.32
2023-05-21T09:14:19.369Z,64.66
2023-05-21T09:15:20.282Z,65.16
2023-05-21T09:16:21.158Z,65.50
2023-05-21T09:17:22.069Z,65.93
2023-05-21T09:18:22.917Z,66.53
2023-05-21T09:21:12.604Z,67.03
2023-05-21T09:22:13.473Z,66.74
2023-05-21T09:23:14.362Z,67.24
2023-05-21T09:24:15.249Z,66.71
2023-05-21T09:25:16.135Z,66.74
2023-05-21T09:26:16.842Z,66.94
2023-05-21T09:29:06.767Z,67.00
2023-05-21T09:30:07.624Z,66.03
2023-05-21T09:31:08.511Z,63.46
2023-05-21T09:32:09.463Z,61.57
2023-05-21T09:33:10.369Z,59.74
2023-05-21T09:34:11.256Z,59.50
2023-05-21T09:37:00.698Z,60.47
2023-05-21T09:38:01.594Z,61.36
2023-05-21T09:39:02.486Z,61.60
2023-05-21T09:40:03.410Z,62.46
2023-05-21T09:41:04.310Z,62.93
2023-05-21T09:42:05.204Z,61.34
2023-05-21T09:43:06.363Z,59.48
2023-05-21T09:44:06.729Z,57.85
2023-05-21T09:45:07.692Z,57.92
2023-05-21T09:46:08.565Z,56.79
2023-05-21T09:47:09.483Z,56.27
2023-05-21T09:48:10.371Z,55.77
2023-05-21T09:49:11.265Z,56.29
2023-05-21T09:50:12.158Z,57.45
2023-05-21T09:51:13.011Z,58.37
2023-05-21T09:52:13.897Z,59.61
2023-05-21T09:53:14.764Z,60.24
2023-05-21T09:54:15.652Z,60.01
2023-05-21T09:55:16.534Z,59.11
2023-05-21T09:56:17.398Z,58.05
2023-05-21T09:57:18.269Z,57.62
2023-05-21T09:58:19.174Z,57.32
2023-05-21T09:59:20.062Z,57.45
2023-05-21T10:00:20.933Z,57.15
2023-05-21T10:01:21.870Z,58.18
2023-05-21T10:02:23.106Z,58.37
2023-05-21T10:05:12.633Z,58.15
2023-05-21T10:06:13.493Z,57.85
2023-05-21T10:07:14.393Z,57.85
2023-05-21T10:08:15.302Z,57.62
2023-05-21T10:09:16.238Z,56.99
2023-05-21T10:10:17.194Z,55.57
2023-05-21T10:11:18.064Z,57.02
2023-05-21T10:12:18.962Z,57.35
2023-05-21T10:13:19.826Z,58.40
2023-05-21T10:14:21.190Z,59.64
2023-05-21T10:15:21.573Z,59.81
2023-05-21T10:16:22.560Z,58.78
2023-05-21T10:19:12.099Z,56.07
2023-05-21T10:20:13.013Z,57.12
2023-05-21T10:21:14.011Z,56.92
2023-05-21T10:22:14.919Z,56.82
2023-05-21T10:23:15.776Z,56.59
2023-05-21T10:24:16.692Z,56.29
2023-05-21T10:25:51.854Z,56.20
2023-05-21T10:26:18.179Z,56.39
2023-05-21T10:27:19.072Z,56.99
2023-05-21T10:28:20.061Z,56.16
2023-05-21T10:29:20.905Z,56.70
2023-05-21T10:30:21.807Z,57.19
2023-05-21T10:31:22.704Z,58.15
2023-05-21T10:32:23.725Z,59.25
2023-05-21T10:33:24.134Z,59.45
2023-05-21T10:34:25.038Z,58.65
2023-05-21T10:35:25.946Z,58.98
2023-05-21T10:36:26.520Z,59.68
2023-05-21T10:37:27.414Z,60.11
2023-05-21T10:38:28.293Z,60.81
2023-05-21T10:39:29.179Z,60.91
2023-05-21T10:40:30.123Z,60.91
2023-05-21T10:41:30.974Z,61.21
2023-05-21T10:42:31.889Z,61.34
2023-05-21T10:43:32.762Z,61.44
2023-05-21T10:44:33.639Z,61.44
2023-05-21T10:45:49.326Z,61.54
2023-05-21T10:46:35.173Z,61.51
2023-05-21T10:47:36.133Z,59.35
2023-05-21T10:48:37.027Z,57.59
2023-05-21T10:49:37.907Z,56.54
2023-05-21T10:50:39.081Z,56.77
2023-05-21T10:51:39.645Z,56.24
2023-05-21T10:52:40.576Z,55.84
2023-05-21T10:53:41.464Z,55.81
2023-05-21T10:56:30.920Z,53.22
2023-05-21T10:57:31.866Z,53.09
2023-05-21T10:58:32.766Z,52.57
2023-05-21T10:59:33.649Z,51.67
2023-05-21T11:00:34.693Z,51.67
2023-05-21T11:01:35.262Z,52.29
2023-05-21T11:04:25.166Z,52.69
2023-05-21T11:05:25.999Z,51.97
2023-05-21T11:06:26.923Z,51.87
2023-05-21T11:07:27.797Z,51.25
2023-05-21T11:08:28.684Z,50.70
2023-05-21T11:09:29.584Z,49.68
2023-05-21T11:10:30.447Z,49.26
2023-05-21T11:11:31.735Z,48.96
2023-05-21T11:12:32.145Z,48.92
2023-05-21T11:13:33.006Z,48.27
2023-05-21T11:14:33.886Z,48.89
2023-05-21T11:15:34.772Z,48.77
2023-05-21T11:16:35.668Z,48.77
2023-05-21T11:17:36.609Z,48.59
2023-05-21T11:18:37.459Z,49.61
2023-05-21T11:19:38.581Z,50.25
2023-05-21T11:20:39.322Z,51.87
2023-05-21T11:21:40.233Z,51.37
2023-05-21T11:22:41.107Z,51.57
2023-05-21T11:23:42.026Z,51.27
2023-05-21T11:26:32.020Z,51.22
2023-05-21T11:27:32.401Z,51.03
2023-05-21T11:28:33.277Z,50.50
2023-05-21T11:29:34.200Z,50.08
2023-05-21T11:30:36.225Z,50.31
2023-05-21T11:31:35.948Z,49.68
2023-05-21T11:32:36.970Z,49.07
2023-05-21T11:33:37.419Z,49.19
2023-05-21T11:34:38.281Z,49.71
2023-05-21T11:35:39.203Z,50.01
2023-05-21T11:36:40.063Z,49.98
2023-05-21T11:37:40.940Z,49.36
2023-05-21T11:38:41.845Z,49.91
2023-05-21T11:39:42.724Z,50.52
2023-05-21T11:40:43.609Z,50.93
2023-05-21T11:41:44.472Z,50.60
2023-05-21T11:42:45.357Z,50.20
2023-05-21T11:43:46.288Z,50.08
2023-05-21T11:44:47.170Z,49.66
2023-05-21T11:45:48.058Z,48.62
2023-05-21T11:46:49.082Z,48.10
2023-05-21T11:47:49.542Z,49.36
2023-05-21T11:48:50.515Z,49.63
2023-05-21T11:50:14.752Z,48.94
2023-05-21T11:50:52.099Z,49.66
2023-05-21T11:51:52.972Z,49.44
2023-05-21T11:52:53.850Z,49.51
2023-05-21T11:53:54.773Z,48.20
2023-05-21T11:54:55.362Z,48.10
2023-05-21T11:55:56.301Z,48.40
2023-05-21T11:56:57.180Z,49.54
2023-05-21T11:57:58.069Z,49.93
2023-05-21T11:58:58.988Z,49.63
2023-05-21T11:59:59.853Z,49.11
2023-05-21T12:01:00.775Z,48.47
2023-05-21T12:02:01.614Z,47.46
2023-05-21T12:03:02.591Z,46.94
2023-05-21T12:04:03.450Z,47.78
2023-05-21T12:05:05.106Z,47.98
2023-05-21T12:06:04.548Z,47.78
2023-05-21T12:07:05.408Z,48.52
2023-05-21T12:08:06.281Z,49.74
2023-05-21T12:09:07.186Z,49.86
2023-05-21T12:10:08.105Z,50.65
2023-05-21T12:11:09.015Z,50.43
2023-05-21T12:12:09.914Z,50.23
2023-05-21T12:13:10.788Z,51.28
2023-05-21T12:14:11.747Z,52.19
2023-05-21T12:15:12.594Z,52.07
2023-05-21T12:16:13.472Z,51.23
2023-05-21T12:17:14.354Z,49.99
2023-05-21T12:18:15.222Z,48.75
2023-05-21T12:19:16.182Z,47.83
2023-05-21T12:20:17.139Z,47.00
2023-05-21T12:21:18.019Z,46.18
2023-05-21T12:22:18.917Z,45.76
2023-05-21T12:23:19.780Z,44.78
2023-05-21T12:24:20.748Z,45.71
2023-05-21T12:25:21.310Z,45.79
2023-05-21T12:26:21.943Z,45.90
2023-05-21T12:27:22.864Z,46.03
2023-05-21T12:28:25.171Z,46.92
2023-05-21T12:29:24.606Z,47.12
2023-05-21T12:30:25.482Z,47.02
2023-05-21T12:31:26.374Z,46.38
2023-05-21T12:32:27.392Z,45.29
2023-05-21T12:33:28.296Z,45.19
2023-05-21T12:34:29.200Z,44.87
2023-05-21T12:35:30.195Z,44.85
2023-05-21T12:36:31.032Z,44.73
2023-05-21T12:37:31.950Z,44.26
2023-05-21T12:38:32.835Z,44.46
2023-05-21T12:39:33.770Z,45.07
2023-05-21T12:40:34.798Z,46.20
2023-05-21T12:41:35.287Z,45.98
2023-05-21T12:42:36.133Z,45.45
2023-05-21T12:43:37.024Z,45.15
2023-05-21T12:44:37.940Z,45.13
2023-05-21T12:45:38.789Z,44.51
2023-05-21T12:46:39.798Z,44.59
2023-05-21T12:47:40.256Z,44.00
2023-05-21T12:48:41.391Z,43.68
2023-05-21T12:49:41.782Z,42.99
2023-05-21T12:50:42.671Z,44.46
2023-05-21T12:51:43.523Z,46.52
2023-05-21T12:52:44.428Z,47.04
2023-05-21T12:53:45.340Z,47.22
2023-05-21T12:54:46.213Z,47.12
2023-05-21T12:55:47.096Z,47.83
2023-05-21T12:56:47.965Z,47.74
2023-05-21T12:57:48.876Z,47.53
2023-05-21T12:58:51.062Z,47.93
2023-05-21T12:59:50.950Z,48.33
2023-05-21T13:00:51.331Z,47.78
2023-05-21T13:01:52.286Z,46.48
2023-05-21T13:02:53.242Z,46.67
2023-05-21T13:03:54.165Z,46.45
2023-05-21T13:04:55.044Z,45.94
2023-05-21T13:05:55.914Z,44.71
2023-05-21T13:06:56.809Z,44.91
2023-05-21T13:07:57.721Z,44.93
2023-05-21T13:08:58.582Z,45.03
2023-05-21T13:09:59.488Z,45.74
2023-05-21T13:11:00.364Z,45.52
2023-05-21T13:12:01.217Z,44.61
2023-05-21T13:13:02.135Z,44.29
2023-05-21T13:14:03.297Z,43.78
2023-05-21T13:15:03.718Z,43.68
2023-05-21T13:16:04.618Z,44.39
2023-05-21T13:17:05.524Z,44.61
2023-05-21T13:18:06.462Z,44.20
2023-05-21T13:19:07.353Z,44.20
2023-05-21T13:20:08.559Z,44.39
2023-05-21T13:21:08.901Z,44.51
2023-05-21T13:22:09.791Z,44.83
2023-05-21T13:23:11.924Z,45.13
2023-05-21T13:24:11.456Z,45.32
2023-05-21T13:25:12.332Z,44.91
2023-05-21T13:26:13.226Z,45.13
2023-05-21T13:27:14.106Z,45.25
2023-05-21T13:28:15.027Z,45.13
2023-05-21T13:29:15.988Z,45.13
2023-05-21T13:30:16.966Z,45.03
2023-05-21T13:31:17.818Z,44.12
2023-05-21T13:32:18.765Z,44.00
2023-05-21T13:33:19.700Z,44.00
2023-05-21T13:34:20.600Z,43.88
2023-05-21T13:35:21.538Z,43.78
2023-05-21T13:36:22.396Z,43.48
2023-05-21T13:37:23.327Z,43.80
2023-05-21T13:38:24.248Z,44.29
2023-05-21T13:39:25.183Z,43.80
2023-05-21T13:40:26.179Z,43.48
2023-05-21T13:41:26.584Z,43.05
2023-05-21T13:42:27.442Z,42.54
2023-05-21T13:43:28.299Z,42.44
2023-05-21T13:44:29.192Z,42.24
2023-05-21T13:45:30.152Z,42.24
2023-05-21T13:46:31.029Z,42.02
2023-05-21T13:47:32.038Z,42.44
2023-05-21T13:48:32.896Z,42.28
2023-05-21T13:49:33.792Z,43.19
2023-05-21T13:50:34.970Z,43.38
2023-05-21T13:51:39.157Z,43.68
2023-05-21T13:52:36.341Z,43.48
2023-05-21T13:53:37.214Z,43.27
2023-05-21T13:54:38.150Z,42.76
2023-05-21T13:55:39.015Z,42.46
2023-05-21T13:56:39.921Z,42.65
2023-05-21T13:57:40.966Z,43.27
2023-05-21T13:58:41.316Z,43.68
2023-05-21T13:59:42.202Z,44.10
2023-05-21T14:00:43.310Z,43.78
2023-05-21T14:01:43.708Z,43.80
2023-05-21T14:02:44.962Z,44.91
2023-05-21T14:03:45.596Z,45.01
2023-05-21T14:04:46.473Z,44.91
2023-05-21T14:05:47.391Z,44.81
2023-05-21T14:06:48.286Z,43.68
2023-05-21T14:07:49.155Z,43.48
2023-05-21T14:08:50.041Z,43.07
2023-05-21T14:09:50.937Z,42.79
2023-05-21T14:10:51.828Z,42.69
2023-05-21T14:11:52.703Z,43.29
2023-05-21T14:12:55.842Z,42.89
2023-05-21T14:13:55.622Z,42.69
2023-05-21T14:14:55.005Z,42.47
2023-05-21T14:15:56.036Z,42.58
2023-05-21T14:16:56.409Z,42.79
2023-05-21T14:17:57.273Z,43.41
2023-05-21T14:18:58.185Z,42.99
2023-05-21T14:19:59.038Z,42.38
2023-05-21T14:20:59.933Z,42.68
2023-05-21T14:22:00.824Z,42.65
2023-05-21T14:23:01.719Z,42.87
2023-05-21T14:24:02.610Z,42.65
2023-05-21T14:25:03.528Z,42.24
2023-05-21T14:26:04.422Z,41.83
2023-05-21T14:27:05.344Z,41.63
2023-05-21T14:28:06.222Z,41.24
2023-05-21T14:29:07.124Z,41.22
2023-05-21T14:30:08.038Z,40.70
2023-05-21T14:31:08.985Z,40.80
2023-05-21T14:32:09.874Z,40.61
2023-05-21T14:33:10.780Z,40.58
2023-05-21T14:34:11.625Z,40.41
2023-05-21T14:35:12.783Z,40.72
2023-05-21T14:36:13.197Z,41.43
2023-05-21T14:37:14.088Z,41.53
2023-05-21T14:38:14.958Z,41.93
2023-05-21T14:39:15.847Z,41.31
2023-05-21T14:40:16.719Z,41.53
2023-05-21T14:41:17.651Z,41.85
2023-05-21T14:42:18.496Z,42.54
2023-05-21T14:43:19.670Z,42.63
2023-05-21T14:44:20.068Z,42.63
2023-05-21T14:45:20.914Z,42.52
2023-05-21T14:46:21.917Z,41.43
2023-05-21T14:47:22.421Z,41.61
2023-05-21T14:48:22.870Z,41.63
2023-05-21T14:49:24.039Z,41.83